sensor_id;sensor_type;location;lat;lon;timestamp;pressure;altitude;pressure_sealevel;temperature;humidity
9893;BME280;4985;49.092;8.542;2023-05-08T00:00:08;99597.06;;;22.59;52.80
9893;BME280;4985;49.092;8.542;2023-05-08T00:02:35;99591.69;;;22.59;52.79
9893;BME280;4985;49.092;8.542;2023-05-08T00:05:01;99598.94;;;22.59;52.80
9893;BME280;4985;49.092;8.542;2023-05-08T00:07:28;99593.56;;;22.59;52.80
9893;BME280;4985;49.092;8.542;2023-05-08T00:09:56;99591.94;;;22.58;52.80
9893;BME280;4985;49.092;8.542;2023-05-08T00:12:22;99588.44;;;22.57;52.80
9893;BME280;4985;49.092;8.542;2023-05-08T00:14:49;99595.44;;;22.58;52.80
9893;BME280;4985;49.092;8.542;2023-05-08T00:17:16;99593.78;;;22.57;52.81
9893;BME280;4985;49.092;8.542;2023-05-08T00:19:42;99585.75;;;22.57;52.80
9893;BME280;4985;49.092;8.542;2023-05-08T00:22:09;99580.38;;;22.57;52.81
9893;BME280;4985;49.092;8.542;2023-05-08T00:24:35;99592.97;;;22.57;52.80
9893;BME280;4985;49.092;8.542;2023-05-08T00:27:03;99592.97;;;22.57;52.80
9893;BME280;4985;49.092;8.542;2023-05-08T00:29:30;99589.47;;;22.56;52.80
9893;BME280;4985;49.092;8.542;2023-05-08T00:31:56;99593.78;;;22.57;52.81
9893;BME280;4985;49.092;8.542;2023-05-08T00:34:23;99583.31;;;22.56;52.80
9893;BME280;4985;49.092;8.542;2023-05-08T00:36:49;99590.53;;;22.55;52.80
9893;BME280;4985;49.092;8.542;2023-05-08T00:39:16;99584.13;;;22.56;52.80
9893;BME280;4985;49.092;8.542;2023-05-08T00:41:43;99589.72;;;22.55;52.80
9893;BME280;4985;49.092;8.542;2023-05-08T00:44:11;99592.41;;;22.55;52.81
9893;BME280;4985;49.092;8.542;2023-05-08T00:46:38;99588.91;;;22.54;52.80
9893;BME280;4985;49.092;8.542;2023-05-08T00:49:06;99588.91;;;22.54;52.80
9893;BME280;4985;49.092;8.542;2023-05-08T00:51:34;99594.28;;;22.54;52.80
9893;BME280;4985;49.092;8.542;2023-05-08T00:54:01;99594.47;;;22.53;52.80
9893;BME280;4985;49.092;8.542;2023-05-08T00:56:29;99590.97;;;22.52;52.81
9893;BME280;4985;49.092;8.542;2023-05-08T00:58:57;99590.63;;;22.49;52.82
9893;BME280;4985;49.092;8.542;2023-05-08T01:01:25;99597.41;;;22.51;52.81
9893;BME280;4985;49.092;8.542;2023-05-08T01:03:52;99596.34;;;22.52;52.81
9893;BME280;4985;49.092;8.542;2023-05-08T01:06:19;99602.75;;;22.51;52.81
9893;BME280;4985;49.092;8.542;2023-05-08T01:08:45;99600.09;;;22.51;52.82
9893;BME280;4985;49.092;8.542;2023-05-08T01:11:16;99601.94;;;22.51;52.82
9893;BME280;4985;49.092;8.542;2023-05-08T01:13:50;99602.75;;;22.51;52.81
9893;BME280;4985;49.092;8.542;2023-05-08T01:16:23;99603.81;;;22.50;52.82
9893;BME280;4985;49.092;8.542;2023-05-08T01:18:59;99600.31;;;22.50;52.82
9893;BME280;4985;49.092;8.542;2023-05-08T01:21:32;99603.00;;;22.50;52.83
9893;BME280;4985;49.092;8.542;2023-05-08T01:24:18;99606.75;;;22.49;52.83
9893;BME280;4985;49.092;8.542;2023-05-08T01:27:14;99602.19;;;22.49;52.83
9893;BME280;4985;49.092;8.542;2023-05-08T01:30:01;99606.97;;;22.47;52.83
9893;BME280;4985;49.092;8.542;2023-05-08T01:32:35;99610.13;;;22.44;52.83
9893;BME280;4985;49.092;8.542;2023-05-08T01:35:16;99615.03;;;22.47;52.84
9893;BME280;4985;49.092;8.542;2023-05-08T01:37:53;99615.84;;;22.48;52.84
9893;BME280;4985;49.092;8.542;2023-05-08T01:40:30;99620.37;;;22.47;52.85
9893;BME280;4985;49.092;8.542;2023-05-08T01:43:05;99618.75;;;22.46;52.86
9893;BME280;4985;49.092;8.542;2023-05-08T01:45:37;99622.50;;;22.45;52.87
9893;BME280;4985;49.092;8.542;2023-05-08T01:48:08;99627.03;;;22.45;52.88
9893;BME280;4985;49.092;8.542;2023-05-08T01:50:39;99626.22;;;22.44;52.90
9893;BME280;4985;49.092;8.542;2023-05-08T01:53:15;99629.97;;;22.43;52.91
9893;BME280;4985;49.092;8.542;2023-05-08T01:55:43;99627.28;;;22.43;52.91
9893;BME280;4985;49.092;8.542;2023-05-08T01:58:12;99627.28;;;22.43;52.90
9893;BME280;4985;49.092;8.542;2023-05-08T02:00:40;99622.94;;;22.42;52.91
9893;BME280;4985;49.092;8.542;2023-05-08T02:03:10;99622.94;;;22.42;52.92
9893;BME280;4985;49.092;8.542;2023-05-08T02:05:40;99629.16;;;22.43;52.90
9893;BME280;4985;49.092;8.542;2023-05-08T02:08:10;99624.59;;;22.43;52.90
9893;BME280;4985;49.092;8.542;2023-05-08T02:10:39;99624.78;;;22.42;52.91
9893;BME280;4985;49.092;8.542;2023-05-08T02:13:08;99626.66;;;22.41;52.91
9893;BME280;4985;49.092;8.542;2023-05-08T02:15:36;99621.28;;;22.41;52.91
9893;BME280;4985;49.092;8.542;2023-05-08T02:18:06;99625.84;;;22.41;52.91
9893;BME280;4985;49.092;8.542;2023-05-08T02:20:35;99626.66;;;22.41;52.91
9893;BME280;4985;49.092;8.542;2023-05-08T02:23:03;99629.34;;;22.41;52.91
9893;BME280;4985;49.092;8.542;2023-05-08T02:25:30;99627.72;;;22.40;52.90
9893;BME280;4985;49.092;8.542;2023-05-08T02:27:57;99622.34;;;22.40;52.90
9893;BME280;4985;49.092;8.542;2023-05-08T02:30:25;99625.03;;;22.40;52.91
9893;BME280;4985;49.092;8.542;2023-05-08T02:32:54;99626.91;;;22.40;52.91
9893;BME280;4985;49.092;8.542;2023-05-08T02:35:22;99623.06;;;22.35;52.91
9893;BME280;4985;49.092;8.542;2023-05-08T02:37:54;99628.78;;;22.39;52.90
9893;BME280;4985;49.092;8.542;2023-05-08T02:40:23;99638.69;;;22.38;52.92
9893;BME280;4985;49.092;8.542;2023-05-08T02:42:51;99632.50;;;22.38;52.92
9893;BME280;4985;49.092;8.542;2023-05-08T02:45:18;99637.88;;;22.38;52.91
9893;BME280;4985;49.092;8.542;2023-05-08T02:47:51;99636.22;;;22.37;52.92
9893;BME280;4985;49.092;8.542;2023-05-08T02:50:23;99635.41;;;22.36;52.92
9893;BME280;4985;49.092;8.542;2023-05-08T02:52:59;99641.59;;;22.37;52.93
9893;BME280;4985;49.092;8.542;2023-05-08T02:55:33;99641.59;;;22.37;52.92
9893;BME280;4985;49.092;8.542;2023-05-08T02:58:10;99644.28;;;22.37;52.93
9893;BME280;4985;49.092;8.542;2023-05-08T03:00:42;99639.97;;;22.36;52.93
9893;BME280;4985;49.092;8.542;2023-05-08T03:03:14;99639.16;;;22.35;52.94
9893;BME280;4985;49.092;8.542;2023-05-08T03:05:46;99638.34;;;22.35;52.94
9893;BME280;4985;49.092;8.542;2023-05-08T03:08:24;99636.69;;;22.34;52.94
9893;BME280;4985;49.092;8.542;2023-05-08T03:10:55;99636.69;;;22.34;52.95
9893;BME280;4985;49.092;8.542;2023-05-08T03:13:23;99633.22;;;22.33;52.94
9893;BME280;4985;49.092;8.542;2023-05-08T03:15:53;99637.75;;;22.33;52.95
9893;BME280;4985;49.092;8.542;2023-05-08T03:18:25;99635.06;;;22.33;52.96
9893;BME280;4985;49.092;8.542;2023-05-08T03:20:55;99636.13;;;22.32;52.95
9893;BME280;4985;49.092;8.542;2023-05-08T03:23:27;99637.75;;;22.33;52.96
9893;BME280;4985;49.092;8.542;2023-05-08T03:25:57;99634.25;;;22.32;52.95
9893;BME280;4985;49.092;8.542;2023-05-08T03:28:24;99628.06;;;22.32;52.94
9893;BME280;4985;49.092;8.542;2023-05-08T03:30:52;99633.44;;;22.32;52.94
9893;BME280;4985;49.092;8.542;2023-05-08T03:33:20;99633.44;;;22.32;52.96
9893;BME280;4985;49.092;8.542;2023-05-08T03:35:50;99629.09;;;22.31;52.95
9893;BME280;4985;49.092;8.542;2023-05-08T03:38:17;99628.06;;;22.32;52.95
9893;BME280;4985;49.092;8.542;2023-05-08T03:40:45;99625.59;;;22.30;52.96
9893;BME280;4985;49.092;8.542;2023-05-08T03:43:12;99625.59;;;22.30;52.95
9893;BME280;4985;49.092;8.542;2023-05-08T03:45:40;99629.34;;;22.29;52.96
9893;BME280;4985;49.092;8.542;2023-05-08T03:48:08;99633.88;;;22.29;52.96
9893;BME280;4985;49.092;8.542;2023-05-08T03:50:36;99629.00;;;22.26;52.97
9893;BME280;4985;49.092;8.542;2023-05-08T03:53:03;99632.25;;;22.28;52.96
9893;BME280;4985;49.092;8.542;2023-05-08T03:55:29;99634.13;;;22.27;52.97
9893;BME280;4985;49.092;8.542;2023-05-08T03:58:00;99634.94;;;22.28;52.98
9893;BME280;4985;49.092;8.542;2023-05-08T04:00:36;99626.87;;;22.28;52.99
9893;BME280;4985;49.092;8.542;2023-05-08T04:03:15;99635.97;;;22.27;52.98
9893;BME280;4985;49.092;8.542;2023-05-08T04:05:50;99633.31;;;22.27;52.98
9893;BME280;4985;49.092;8.542;2023-05-08T04:08:20;99632.72;;;22.25;52.99
9893;BME280;4985;49.092;8.542;2023-05-08T04:10:51;99634.34;;;22.26;52.98
9893;BME280;4985;49.092;8.542;2023-05-08T04:13:26;99634.34;;;22.26;52.99
9893;BME280;4985;49.092;8.542;2023-05-08T04:16:04;99638.09;;;22.25;52.99
9893;BME280;4985;49.092;8.542;2023-05-08T04:18:33;99631.91;;;22.24;52.99
9893;BME280;4985;49.092;8.542;2023-05-08T04:21:02;99642.63;;;22.24;52.99
9893;BME280;4985;49.092;8.542;2023-05-08T04:23:34;99648.81;;;22.25;52.99
9893;BME280;4985;49.092;8.542;2023-05-08T04:26:01;99649.63;;;22.25;53.00
9893;BME280;4985;49.092;8.542;2023-05-08T04:28:32;99649.87;;;22.24;53.00
9893;BME280;4985;49.092;8.542;2023-05-08T04:31:00;99649.87;;;22.24;53.00
9893;BME280;4985;49.092;8.542;2023-05-08T04:33:28;99659.78;;;22.23;53.00
9893;BME280;4985;49.092;8.542;2023-05-08T05:11:28;99668.31;;;22.32;53.48
9893;BME280;4985;49.092;8.542;2023-05-08T05:13:55;99668.31;;;22.32;53.48
9893;BME280;4985;49.092;8.542;2023-05-08T05:16:21;99681.66;;;21.90;54.03
9893;BME280;4985;49.092;8.542;2023-05-08T05:18:48;99681.19;;;21.93;53.96
9893;BME280;4985;49.092;8.542;2023-05-08T05:21:15;99681.78;;;21.95;53.85
9893;BME280;4985;49.092;8.542;2023-05-08T05:23:41;99685.66;;;21.99;53.76
9893;BME280;4985;49.092;8.542;2023-05-08T05:26:08;99689.97;;;22.00;53.67
9893;BME280;4985;49.092;8.542;2023-05-08T05:28:36;99688.94;;;22.01;53.60
9893;BME280;4985;49.092;8.542;2023-05-08T05:31:03;99689.53;;;22.03;53.54
9893;BME280;4985;49.092;8.542;2023-05-08T05:33:30;99684.16;;;22.03;53.49
9893;BME280;4985;49.092;8.542;2023-05-08T05:35:56;99693.63;;;22.06;53.45
9893;BME280;4985;49.092;8.542;2023-05-08T05:38:23;99699.81;;;22.06;53.41
9893;BME280;4985;49.092;8.542;2023-05-08T05:40:50;99704.13;;;22.07;53.39
9893;BME280;4985;49.092;8.542;2023-05-08T05:43:16;99691.75;;;22.06;53.35
9893;BME280;4985;49.092;8.542;2023-05-08T05:45:44;99696.06;;;22.07;53.33
9893;BME280;4985;49.092;8.542;2023-05-08T05:48:11;99701.44;;;22.07;53.31
9893;BME280;4985;49.092;8.542;2023-05-08T05:50:37;99705.78;;;22.08;53.30
9893;BME280;4985;49.092;8.542;2023-05-08T05:53:04;99702.69;;;22.05;53.28
9893;BME280;4985;49.092;8.542;2023-05-08T05:55:31;99714.66;;;22.09;53.28
9893;BME280;4985;49.092;8.542;2023-05-08T05:57:58;99703.09;;;22.08;53.27
9893;BME280;4985;49.092;8.542;2023-05-08T06:00:25;99709.28;;;22.09;53.26
9893;BME280;4985;49.092;8.542;2023-05-08T06:02:53;99714.66;;;22.09;53.25
9893;BME280;4985;49.092;8.542;2023-05-08T06:05:19;99703.09;;;22.08;53.24
9893;BME280;4985;49.092;8.542;2023-05-08T06:07:47;99709.28;;;22.09;53.22
9893;BME280;4985;49.092;8.542;2023-05-08T06:10:14;99708.47;;;22.08;53.22
9893;BME280;4985;49.092;8.542;2023-05-08T06:12:40;99704.94;;;22.08;53.22
9893;BME280;4985;49.092;8.542;2023-05-08T06:15:07;99709.47;;;22.07;53.22
9893;BME280;4985;49.092;8.542;2023-05-08T06:17:35;99710.53;;;22.06;53.22
9893;BME280;4985;49.092;8.542;2023-05-08T06:20:03;99707.84;;;22.06;53.23
9893;BME280;4985;49.092;8.542;2023-05-08T06:22:30;99711.34;;;22.07;53.23
9893;BME280;4985;49.092;8.542;2023-05-08T06:24:57;99715.91;;;22.06;53.23
9893;BME280;4985;49.092;8.542;2023-05-08T06:27:24;99714.22;;;22.05;53.23
9893;BME280;4985;49.092;8.542;2023-05-08T06:29:50;99716.91;;;22.05;53.24
9893;BME280;4985;49.092;8.542;2023-05-08T06:32:18;99715.06;;;22.06;53.24
9893;BME280;4985;49.092;8.542;2023-05-08T06:34:44;99719.59;;;22.05;53.23
9893;BME280;4985;49.092;8.542;2023-05-08T06:37:12;99719.59;;;22.05;53.23
9893;BME280;4985;49.092;8.542;2023-05-08T06:39:39;99714.22;;;22.05;53.23
9893;BME280;4985;49.092;8.542;2023-05-08T06:42:06;99711.53;;;22.05;53.23
9893;BME280;4985;49.092;8.542;2023-05-08T06:44:33;99716.91;;;22.05;53.24
9893;BME280;4985;49.092;8.542;2023-05-08T06:46:59;99717.97;;;22.04;53.23
9893;BME280;4985;49.092;8.542;2023-05-08T06:49:26;99720.63;;;22.04;53.24
9893;BME280;4985;49.092;8.542;2023-05-08T06:51:53;99719.59;;;22.05;53.23
9893;BME280;4985;49.092;8.542;2023-05-08T06:54:21;99721.47;;;22.05;53.23
9893;BME280;4985;49.092;8.542;2023-05-08T06:56:47;99723.31;;;22.04;53.23
9893;BME280;4985;49.092;8.542;2023-05-08T06:59:14;99724.13;;;22.05;53.23
9893;BME280;4985;49.092;8.542;2023-05-08T07:01:41;99723.31;;;22.04;53.23
9893;BME280;4985;49.092;8.542;2023-05-08T07:04:07;99722.50;;;22.04;53.23
9893;BME280;4985;49.092;8.542;2023-05-08T07:06:34;99727.88;;;22.04;53.22
9893;BME280;4985;49.092;8.542;2023-05-08T07:09:00;99724.13;;;22.05;53.21
9893;BME280;4985;49.092;8.542;2023-05-08T07:11:28;99723.31;;;22.04;53.19
9893;BME280;4985;49.092;8.542;2023-05-08T07:13:55;99721.47;;;22.05;53.18
9893;BME280;4985;49.092;8.542;2023-05-08T07:16:21;99720.44;;;22.06;53.17
9893;BME280;4985;49.092;8.542;2023-05-08T07:18:48;99724.94;;;22.05;53.18
9893;BME280;4985;49.092;8.542;2023-05-08T07:21:14;99726.00;;;22.04;53.16
9893;BME280;4985;49.092;8.542;2023-05-08T07:23:43;99726.00;;;22.04;53.17
9893;BME280;4985;49.092;8.542;2023-05-08T07:26:09;99739.41;;;22.04;53.15
9893;BME280;4985;49.092;8.542;2023-05-08T07:28:37;99726.00;;;22.04;53.16
9893;BME280;4985;49.092;8.542;2023-05-08T07:31:04;99728.69;;;22.04;53.15
9893;BME280;4985;49.092;8.542;2023-05-08T07:33:31;99736.72;;;22.04;53.16
9893;BME280;4985;49.092;8.542;2023-05-08T07:35:58;99733.22;;;22.04;53.16
9893;BME280;4985;49.092;8.542;2023-05-08T07:38:24;99738.59;;;22.04;53.17
9893;BME280;4985;49.092;8.542;2023-05-08T07:40:51;99739.41;;;22.04;53.15
9893;BME280;4985;49.092;8.542;2023-05-08T07:43:21;99738.59;;;22.04;53.15
9893;BME280;4985;49.092;8.542;2023-05-08T07:45:49;99727.50;;;22.00;53.15
9893;BME280;4985;49.092;8.542;2023-05-08T07:48:16;99737.78;;;22.03;53.17
9893;BME280;4985;49.092;8.542;2023-05-08T07:50:42;99735.09;;;22.03;53.18
9893;BME280;4985;49.092;8.542;2023-05-08T07:53:09;99737.78;;;22.03;53.20
9893;BME280;4985;49.092;8.542;2023-05-08T07:55:36;99736.97;;;22.03;53.19
9893;BME280;4985;49.092;8.542;2023-05-08T07:58:03;99736.13;;;22.02;53.19
9893;BME280;4985;49.092;8.542;2023-05-08T08:00:29;99741.50;;;22.02;53.19
9893;BME280;4985;49.092;8.542;2023-05-08T08:02:57;99736.97;;;22.03;53.20
9893;BME280;4985;49.092;8.542;2023-05-08T08:05:24;99738.81;;;22.02;53.22
9893;BME280;4985;49.092;8.542;2023-05-08T08:07:50;99737.19;;;22.01;53.22
9893;BME280;4985;49.092;8.542;2023-05-08T08:10:17;99739.06;;;22.01;53.21
9893;BME280;4985;49.092;8.542;2023-05-08T08:12:44;99742.53;;;22.01;53.24
9893;BME280;4985;49.092;8.542;2023-05-08T08:15:10;99743.38;;;22.02;53.24
9893;BME280;4985;49.092;8.542;2023-05-08T08:17:37;99742.53;;;22.01;53.24
9893;BME280;4985;49.092;8.542;2023-05-08T08:20:06;99745.22;;;22.01;53.24
9893;BME280;4985;49.092;8.542;2023-05-08T08:22:33;99738.22;;;22.00;53.22
9893;BME280;4985;49.092;8.542;2023-05-08T08:25:00;99745.22;;;22.01;53.24
9893;BME280;4985;49.092;8.542;2023-05-08T08:27:27;99746.03;;;22.02;53.24
9893;BME280;4985;49.092;8.542;2023-05-08T08:29:53;99750.59;;;22.01;53.25
9893;BME280;4985;49.092;8.542;2023-05-08T08:32:20;99745.22;;;22.01;53.24
9893;BME280;4985;49.092;8.542;2023-05-08T08:34:47;99755.94;;;22.01;53.25
9893;BME280;4985;49.092;8.542;2023-05-08T08:37:15;99753.28;;;22.01;53.25
9893;BME280;4985;49.092;8.542;2023-05-08T08:39:42;99747.91;;;22.01;53.26
9893;BME280;4985;49.092;8.542;2023-05-08T08:42:08;99744.06;;;21.97;53.26
9893;BME280;4985;49.092;8.542;2023-05-08T08:44:36;99752.44;;;22.01;53.27
9893;BME280;4985;49.092;8.542;2023-05-08T08:47:04;99750.59;;;22.01;53.28
9893;BME280;4985;49.092;8.542;2023-05-08T08:49:34;99748.94;;;22.00;53.27
9893;BME280;4985;49.092;8.542;2023-05-08T08:52:02;99752.44;;;22.01;53.26
9893;BME280;4985;49.092;8.542;2023-05-08T08:54:32;99751.63;;;22.00;53.26
9893;BME280;4985;49.092;8.542;2023-05-08T08:57:01;99756.78;;;22.02;53.27
9893;BME280;4985;49.092;8.542;2023-05-08T08:59:31;99762.94;;;22.02;53.27
9893;BME280;4985;49.092;8.542;2023-05-08T09:02:02;99761.31;;;22.01;53.27
9893;BME280;4985;49.092;8.542;2023-05-08T09:04:31;99760.25;;;22.02;53.26
9893;BME280;4985;49.092;8.542;2023-05-08T09:06:57;99759.44;;;22.02;53.26
9893;BME280;4985;49.092;8.542;2023-05-08T09:09:24;99761.31;;;22.01;53.26
9893;BME280;4985;49.092;8.542;2023-05-08T09:11:54;99756.78;;;22.02;53.25
9893;BME280;4985;49.092;8.542;2023-05-08T09:14:21;99761.31;;;22.01;53.26
9893;BME280;4985;49.092;8.542;2023-05-08T09:16:50;99762.94;;;22.02;53.24
9893;BME280;4985;49.092;8.542;2023-05-08T09:19:16;99762.13;;;22.02;53.23
9893;BME280;4985;49.092;8.542;2023-05-08T09:21:44;99762.94;;;22.02;53.22
9893;BME280;4985;49.092;8.542;2023-05-08T09:24:10;99762.13;;;22.02;53.24
9893;BME280;4985;49.092;8.542;2023-05-08T09:26:38;99765.84;;;22.01;53.23
9893;BME280;4985;49.092;8.542;2023-05-08T09:29:14;99764.81;;;22.02;53.25
9893;BME280;4985;49.092;8.542;2023-05-08T09:31:43;99761.31;;;22.01;53.27
9893;BME280;4985;49.092;8.542;2023-05-08T09:34:11;99762.34;;;22.00;53.26
9893;BME280;4985;49.092;8.542;2023-05-08T09:36:46;99768.31;;;22.02;53.26
9893;BME280;4985;49.092;8.542;2023-05-08T09:39:21;99772.84;;;22.02;53.25
9893;BME280;4985;49.092;8.542;2023-05-08T09:41:57;99759.44;;;22.02;53.26
9893;BME280;4985;49.092;8.542;2023-05-08T09:44:26;99770.16;;;22.02;53.25
9893;BME280;4985;49.092;8.542;2023-05-08T09:47:08;99760.13;;;21.97;53.25
9893;BME280;4985;49.092;8.542;2023-05-08T09:49:35;99772.84;;;22.02;53.25
9893;BME280;4985;49.092;8.542;2023-05-08T09:52:04;99777.41;;;22.01;53.24
9893;BME280;4985;49.092;8.542;2023-05-08T09:54:30;99777.16;;;22.03;53.24
9893;BME280;4985;49.092;8.542;2023-05-08T09:56:57;99773.66;;;22.02;53.24
9893;BME280;4985;49.092;8.542;2023-05-08T09:59:26;99771.00;;;22.02;53.23
9893;BME280;4985;49.092;8.542;2023-05-08T10:01:54;99775.53;;;22.02;53.24
9893;BME280;4985;49.092;8.542;2023-05-08T10:04:31;99778.22;;;22.02;53.23
9893;BME280;4985;49.092;8.542;2023-05-08T10:06:57;99780.91;;;22.02;53.24
9893;BME280;4985;49.092;8.542;2023-05-08T10:09:24;99782.75;;;22.01;53.24
9893;BME280;4985;49.092;8.542;2023-05-08T10:11:51;99783.56;;;22.02;53.25
9893;BME280;4985;49.092;8.542;2023-05-08T10:14:20;99785.44;;;22.01;53.26
9893;BME280;4985;49.092;8.542;2023-05-08T10:16:49;99785.44;;;22.01;53.27
9893;BME280;4985;49.092;8.542;2023-05-08T10:19:17;99777.41;;;22.01;53.28
9893;BME280;4985;49.092;8.542;2023-05-08T10:21:46;99784.38;;;22.02;53.29
9893;BME280;4985;49.092;8.542;2023-05-08T10:24:15;99781.13;;;22.00;53.29
9893;BME280;4985;49.092;8.542;2023-05-08T10:26:47;99784.84;;;21.99;53.30
9893;BME280;4985;49.092;8.542;2023-05-08T10:29:17;99782.75;;;22.01;53.31
9893;BME280;4985;49.092;8.542;2023-05-08T10:31:48;99783.56;;;22.02;53.33
9893;BME280;4985;49.092;8.542;2023-05-08T10:34:18;99774.72;;;22.01;53.34
9893;BME280;4985;49.092;8.542;2023-05-08T10:36:48;99779.03;;;22.02;53.33
9893;BME280;4985;49.092;8.542;2023-05-08T10:39:17;99782.75;;;22.01;53.34
9893;BME280;4985;49.092;8.542;2023-05-08T10:41:44;99770.16;;;22.02;53.35
9893;BME280;4985;49.092;8.542;2023-05-08T10:44:12;99782.53;;;22.03;53.37
9893;BME280;4985;49.092;8.542;2023-05-08T10:46:44;99768.31;;;22.02;53.38
9893;BME280;4985;49.092;8.542;2023-05-08T10:49:18;99768.31;;;22.02;53.38
9893;BME280;4985;49.092;8.542;2023-05-08T10:51:57;99766.44;;;22.03;53.40
9893;BME280;4985;49.092;8.542;2023-05-08T10:54:34;99761.91;;;22.03;53.41
9893;BME280;4985;49.092;8.542;2023-05-08T10:57:08;99764.59;;;22.03;53.40
9893;BME280;4985;49.092;8.542;2023-05-08T10:59:35;99760.84;;;22.04;53.42
9893;BME280;4985;49.092;8.542;2023-05-08T11:02:06;99760.84;;;22.04;53.43
9893;BME280;4985;49.092;8.542;2023-05-08T11:04:34;99757.13;;;22.05;53.45
9893;BME280;4985;49.092;8.542;2023-05-08T11:07:02;99763.53;;;22.04;53.45
9893;BME280;4985;49.092;8.542;2023-05-08T11:09:43;99762.47;;;22.05;53.46
9893;BME280;4985;49.092;8.542;2023-05-08T11:12:19;99753.62;;;22.05;53.47
9893;BME280;4985;49.092;8.542;2023-05-08T11:14:54;99746.88;;;22.02;53.47
9893;BME280;4985;49.092;8.542;2023-05-08T11:17:23;99749.94;;;22.06;53.49
9893;BME280;4985;49.092;8.542;2023-05-08T11:19:58;99754.25;;;22.07;53.50
9893;BME280;4985;49.092;8.542;2023-05-08T11:22:27;99748.87;;;22.07;53.52
9893;BME280;4985;49.092;8.542;2023-05-08T11:24:56;99747.03;;;22.07;53.52
9893;BME280;4985;49.092;8.542;2023-05-08T11:27:35;99750.50;;;22.08;53.53
9893;BME280;4985;49.092;8.542;2023-05-08T11:30:28;99746.81;;;22.09;53.52
9893;BME280;4985;49.092;8.542;2023-05-08T11:33:21;99751.13;;;22.10;53.52
9893;BME280;4985;49.092;8.542;2023-05-08T11:35:54;99747.63;;;22.10;53.52
9893;BME280;4985;49.092;8.542;2023-05-08T11:38:29;99753.81;;;22.10;53.53
9893;BME280;4985;49.092;8.542;2023-05-08T11:41:01;99744.72;;;22.11;53.53
9893;BME280;4985;49.092;8.542;2023-05-08T11:44:08;99746.59;;;22.11;53.53
9893;BME280;4985;49.092;8.542;2023-05-08T11:46:41;99749.84;;;22.13;53.54
9893;BME280;4985;49.092;8.542;2023-05-08T11:49:13;99739.12;;;22.13;53.53
9893;BME280;4985;49.092;8.542;2023-05-08T11:51:42;99741.56;;;22.14;53.53
9893;BME280;4985;49.092;8.542;2023-05-08T11:54:12;99741.56;;;22.14;53.52
9893;BME280;4985;49.092;8.542;2023-05-08T11:56:39;99739.72;;;22.15;53.52
9893;BME280;4985;49.092;8.542;2023-05-08T11:59:07;99745.06;;;22.15;53.53
9893;BME280;4985;49.092;8.542;2023-05-08T12:01:34;99740.53;;;22.15;53.54
9893;BME280;4985;49.092;8.542;2023-05-08T12:04:02;99739.72;;;22.15;53.54
9893;BME280;4985;49.092;8.542;2023-05-08T12:06:29;99734.34;;;22.15;53.54
9893;BME280;4985;49.092;8.542;2023-05-08T12:08:58;99737.62;;;22.17;53.54
9893;BME280;4985;49.092;8.542;2023-05-08T12:11:25;99733.87;;;22.18;53.51
9893;BME280;4985;49.092;8.542;2023-05-08T12:13:52;99737.38;;;22.18;53.49
9893;BME280;4985;49.092;8.542;2023-05-08T12:16:21;99740.06;;;22.18;53.51
9893;BME280;4985;49.092;8.542;2023-05-08T12:18:48;99734.13;;;22.16;53.51
9893;BME280;4985;49.092;8.542;2023-05-08T12:21:15;99730.97;;;22.19;53.49
9893;BME280;4985;49.092;8.542;2023-05-08T12:23:42;99724.78;;;22.19;53.50
9893;BME280;4985;49.092;8.542;2023-05-08T12:26:10;99734.47;;;22.20;53.50
9893;BME280;4985;49.092;8.542;2023-05-08T12:28:37;99734.47;;;22.20;53.50
9893;BME280;4985;49.092;8.542;2023-05-08T12:31:05;99736.34;;;22.19;53.49
9893;BME280;4985;49.092;8.542;2023-05-08T12:33:32;99734.47;;;22.20;53.49
9893;BME280;4985;49.092;8.542;2023-05-08T12:35:59;99736.94;;;22.21;53.47
9893;BME280;4985;49.092;8.542;2023-05-08T12:38:27;99729.72;;;22.22;53.45
9893;BME280;4985;49.092;8.542;2023-05-08T12:40:53;99740.44;;;22.22;53.43
9893;BME280;4985;49.092;8.542;2023-05-08T12:43:30;99735.09;;;22.22;53.44
9893;BME280;4985;49.092;8.542;2023-05-08T12:45:57;99743.94;;;22.22;53.43
9893;BME280;4985;49.092;8.542;2023-05-08T12:48:23;99743.72;;;22.24;53.41
9893;BME280;4985;49.092;8.542;2023-05-08T12:50:50;99748.84;;;22.25;53.37
9893;BME280;4985;49.092;8.542;2023-05-08T12:53:18;99737.31;;;22.25;53.33
9893;BME280;4985;49.092;8.542;2023-05-08T12:55:50;99737.06;;;22.26;53.31
9893;BME280;4985;49.092;8.542;2023-05-08T12:58:17;99742.44;;;22.26;53.30
9893;BME280;4985;49.092;8.542;2023-05-08T13:00:47;99742.44;;;22.26;53.30
9893;BME280;4985;49.092;8.542;2023-05-08T13:03:22;99739.75;;;22.26;53.31
9893;BME280;4985;49.092;8.542;2023-05-08T13:05:50;99736.25;;;22.26;53.32
9893;BME280;4985;49.092;8.542;2023-05-08T13:08:16;99729.03;;;22.26;53.33
9893;BME280;4985;49.092;8.542;2023-05-08T13:10:44;99730.31;;;22.24;53.32
9893;BME280;4985;49.092;8.542;2023-05-08T13:13:11;99738.72;;;22.27;53.33
9893;BME280;4985;49.092;8.542;2023-05-08T13:15:38;99734.16;;;22.28;53.32
9893;BME280;4985;49.092;8.542;2023-05-08T13:18:06;99729.38;;;22.30;53.31
9893;BME280;4985;49.092;8.542;2023-05-08T13:20:32;99727.97;;;22.27;53.28
9893;BME280;4985;49.092;8.542;2023-05-08T13:22:59;99728.31;;;22.31;53.29
9893;BME280;4985;49.092;8.542;2023-05-08T13:25:26;99728.31;;;22.31;53.28
9893;BME280;4985;49.092;8.542;2023-05-08T13:27:52;99728.31;;;22.31;53.28
9893;BME280;4985;49.092;8.542;2023-05-08T13:30:19;99726.50;;;22.31;53.28
9893;BME280;4985;49.092;8.542;2023-05-08T13:32:47;99728.31;;;22.31;53.28
9893;BME280;4985;49.092;8.542;2023-05-08T13:35:15;99724.84;;;22.30;53.28
9893;BME280;4985;49.092;8.542;2023-05-08T13:37:41;99723.81;;;22.31;53.29
9893;BME280;4985;49.092;8.542;2023-05-08T13:40:09;99717.59;;;22.31;53.30
9893;BME280;4985;49.092;8.542;2023-05-08T13:42:36;99717.59;;;22.31;53.32
9893;BME280;4985;49.092;8.542;2023-05-08T13:45:03;99709.78;;;22.29;53.34
9893;BME280;4985;49.092;8.542;2023-05-08T13:47:30;99704.19;;;22.31;53.34
9893;BME280;4985;49.092;8.542;2023-05-08T13:49:56;99713.09;;;22.31;53.34
9893;BME280;4985;49.092;8.542;2023-05-08T13:52:25;99712.25;;;22.31;53.35
9893;BME280;4985;49.092;8.542;2023-05-08T13:54:53;99712.25;;;22.31;53.35
9893;BME280;4985;49.092;8.542;2023-05-08T13:57:20;99713.09;;;22.31;53.35
9893;BME280;4985;49.092;8.542;2023-05-08T13:59:47;99716.59;;;22.32;53.35
9893;BME280;4985;49.092;8.542;2023-05-08T14:02:14;99713.91;;;22.32;53.35
9893;BME280;4985;49.092;8.542;2023-05-08T14:04:40;99707.72;;;22.31;53.35
9893;BME280;4985;49.092;8.542;2023-05-08T14:07:07;99715.53;;;22.33;53.36